createdAt,value
2023-05-05T00:01:02.337Z,8.31
2023-05-05T00:03:29.312Z,8.34
2023-05-05T00:05:55.996Z,8.28
2023-05-05T00:08:22.687Z,8.21
2023-05-05T00:10:50.757Z,8.17
2023-05-05T00:13:18.314Z,7.98
2023-05-05T00:15:47.461Z,8.17
2023-05-05T00:18:16.414Z,8.13
2023-05-05T00:20:44.044Z,8.10
2023-05-05T00:23:10.601Z,8.04
2023-05-05T00:25:37.028Z,8.00
2023-05-05T00:28:03.656Z,8.07
2023-05-05T00:30:30.187Z,8.07
2023-05-05T00:32:57.240Z,8.06
2023-05-05T00:35:23.921Z,8.06
2023-05-05T00:37:50.709Z,8.01
2023-05-05T00:40:18.700Z,7.99
2023-05-05T00:42:47.448Z,7.98
2023-05-05T00:45:15.560Z,7.98
2023-05-05T00:47:45.405Z,7.98
2023-05-05T00:50:22.542Z,7.97
2023-05-05T00:52:49.464Z,7.86
2023-05-05T00:55:16.257Z,7.80
2023-05-05T00:57:43.208Z,7.82
2023-05-05T01:00:10.763Z,7.75
2023-05-05T01:02:39.478Z,7.75
2023-05-05T01:05:08.159Z,7.71
2023-05-05T01:08:00.684Z,7.74
2023-05-05T01:10:48.860Z,7.66
2023-05-05T01:13:40.277Z,7.64
2023-05-05T01:16:24.500Z,7.63
2023-05-05T01:18:58.211Z,7.62
2023-05-05T01:21:31.347Z,7.61
2023-05-05T01:24:13.654Z,7.51
2023-05-05T01:27:00.448Z,7.55
2023-05-05T01:29:33.432Z,7.35
2023-05-05T01:32:07.795Z,7.45
2023-05-05T01:34:40.124Z,7.51
2023-05-05T01:37:24.631Z,7.44
2023-05-05T01:39:55.620Z,7.37
2023-05-05T01:42:24.113Z,7.38
2023-05-05T01:44:54.021Z,7.37
2023-05-05T01:47:23.038Z,7.37
2023-05-05T01:49:50.399Z,7.38
2023-05-05T01:52:18.411Z,7.30
2023-05-05T01:54:46.298Z,7.34
2023-05-05T01:57:14.553Z,7.37
2023-05-05T01:59:41.201Z,7.26
2023-05-05T02:02:11.239Z,7.19
2023-05-05T02:04:42.508Z,7.11
2023-05-05T02:07:12.323Z,7.12
2023-05-05T02:09:39.372Z,7.25
2023-05-05T02:12:07.268Z,7.15
2023-05-05T02:14:34.685Z,7.27
2023-05-05T02:17:01.981Z,7.25
2023-05-05T02:19:41.787Z,7.21
2023-05-05T02:22:08.671Z,7.22
2023-05-05T02:24:35.706Z,7.33
2023-05-05T02:27:04.462Z,7.25
2023-05-05T02:29:46.874Z,7.24
2023-05-05T02:32:27.651Z,7.24
2023-05-05T02:34:57.792Z,7.28
2023-05-05T02:37:29.763Z,7.24
2023-05-05T02:40:01.692Z,7.19
2023-05-05T02:42:35.848Z,7.26
2023-05-05T02:45:10.105Z,7.27
2023-05-05T02:47:39.277Z,7.20
2023-05-05T02:50:09.261Z,7.23
2023-05-05T02:52:39.126Z,7.15
2023-05-05T02:55:07.202Z,7.14
2023-05-05T02:57:44.577Z,7.16
2023-05-05T03:00:22.795Z,7.21
2023-05-05T03:03:02.303Z,7.19
2023-05-05T03:05:37.527Z,7.17
2023-05-05T03:08:17.398Z,7.10
2023-05-05T03:10:52.550Z,7.15
2023-05-05T03:13:21.459Z,7.16
2023-05-05T03:15:51.546Z,7.11
2023-05-05T03:18:24.157Z,7.11
2023-05-05T03:20:57.380Z,7.10
2023-05-05T03:23:24.221Z,7.07
2023-05-05T03:25:56.025Z,7.01
2023-05-05T03:28:33.022Z,7.09
2023-05-05T03:31:05.021Z,7.04
2023-05-05T03:33:34.348Z,6.94
2023-05-05T03:36:01.277Z,7.04
2023-05-05T03:38:28.138Z,7.07
2023-05-05T03:40:55.783Z,7.09
2023-05-05T03:43:25.168Z,6.92
2023-05-05T03:45:52.009Z,6.88
2023-05-05T03:48:19.411Z,6.85
2023-05-05T03:50:46.315Z,7.03
2023-05-05T03:53:14.264Z,6.98
2023-05-05T03:55:42.046Z,7.01
2023-05-05T03:58:08.741Z,7.09
2023-05-05T04:00:35.382Z,7.00
2023-05-05T04:03:02.488Z,7.11
2023-05-05T04:05:29.766Z,7.16
2023-05-05T04:07:58.338Z,7.30
2023-05-05T04:10:25.751Z,7.38
2023-05-05T04:12:52.477Z,7.53
2023-05-05T04:15:19.143Z,7.63
2023-05-05T04:17:46.104Z,7.94
2023-05-05T04:20:13.391Z,9.01
2023-05-05T04:22:40.807Z,9.80
2023-05-05T04:25:07.966Z,10.30
2023-05-05T04:27:34.763Z,10.46
2023-05-05T04:30:02.134Z,10.46
2023-05-05T04:32:30.131Z,11.07
2023-05-05T04:34:56.798Z,10.92
2023-05-05T04:37:23.770Z,10.90
2023-05-05T04:39:50.510Z,11.14
2023-05-05T04:42:17.461Z,11.24
2023-05-05T04:44:44.005Z,11.43
2023-05-05T04:47:12.614Z,10.63
2023-05-05T04:49:41.369Z,10.01
2023-05-05T04:52:08.058Z,9.94
2023-05-05T04:54:37.692Z,10.41
2023-05-05T04:57:04.260Z,10.72
2023-05-05T04:59:30.786Z,10.77
2023-05-05T05:01:57.321Z,11.42
2023-05-05T05:04:25.808Z,12.45
2023-05-05T05:06:52.733Z,13.21
2023-05-05T05:09:19.265Z,13.58
2023-05-05T05:11:45.815Z,12.79
2023-05-05T05:14:12.395Z,12.08
2023-05-05T05:16:38.856Z,11.80
2023-05-05T05:19:05.560Z,13.07
2023-05-05T05:21:32.852Z,12.43
2023-05-05T05:23:59.980Z,12.38
2023-05-05T05:26:27.331Z,11.94
2023-05-05T05:28:53.960Z,12.23
2023-05-05T05:31:20.448Z,11.21
2023-05-05T05:33:47.304Z,11.30
2023-05-05T05:36:14.715Z,11.25
2023-05-05T05:38:41.653Z,12.80
2023-05-05T05:41:08.979Z,14.19
2023-05-05T05:43:37.396Z,12.43
2023-05-05T05:46:06.885Z,12.53
2023-05-05T05:48:35.100Z,12.66
2023-05-05T05:51:02.553Z,13.81
2023-05-05T05:53:29.383Z,13.39
2023-05-05T05:55:56.053Z,14.54
2023-05-05T05:58:22.534Z,15.39
2023-05-05T06:00:49.423Z,15.79
2023-05-05T06:03:16.681Z,16.61
2023-05-05T06:05:45.234Z,17.06
2023-05-05T06:08:12.579Z,16.84
2023-05-05T06:10:44.594Z,17.43
2023-05-05T06:13:15.896Z,17.41
2023-05-05T06:15:46.203Z,18.10
2023-05-05T06:18:14.048Z,18.33
2023-05-05T06:20:41.064Z,18.41
2023-05-05T06:23:07.622Z,18.70
2023-05-05T06:25:37.613Z,18.42
2023-05-05T06:28:05.616Z,18.78
2023-05-05T06:30:32.830Z,18.43
2023-05-05T06:32:59.751Z,18.15
2023-05-05T06:35:26.406Z,16.53
2023-05-05T06:37:52.888Z,16.17
2023-05-05T06:40:19.528Z,15.82
2023-05-05T06:42:46.172Z,17.41
2023-05-05T06:45:17.697Z,17.19
2023-05-05T06:47:44.573Z,18.31
2023-05-05T06:50:11.577Z,18.08
2023-05-05T06:52:38.254Z,16.87
2023-05-05T06:55:05.460Z,16.64
2023-05-05T06:57:32.026Z,16.91
2023-05-05T06:59:58.532Z,17.62
2023-05-05T07:02:26.699Z,17.20
2023-05-05T07:04:55.471Z,17.59
2023-05-05T07:07:22.370Z,17.32
2023-05-05T07:09:49.043Z,17.39
2023-05-05T07:12:15.612Z,18.48
2023-05-05T07:14:42.129Z,17.86
2023-05-05T07:17:08.637Z,17.87
2023-05-05T07:19:35.053Z,17.51
2023-05-05T07:22:01.642Z,17.60
2023-05-05T07:24:28.091Z,17.98
2023-05-05T07:26:54.623Z,18.07
2023-05-05T07:29:21.145Z,17.96
2023-05-05T07:31:47.687Z,18.13
2023-05-05T07:34:14.164Z,18.27
2023-05-05T07:36:41.734Z,17.43
2023-05-05T07:39:08.239Z,17.04
2023-05-05T07:41:34.738Z,16.97
2023-05-05T07:44:01.453Z,17.29
2023-05-05T07:46:28.053Z,17.11
2023-05-05T07:48:54.690Z,18.02
2023-05-05T07:51:21.574Z,17.95
2023-05-05T07:53:48.084Z,17.81
2023-05-05T07:56:14.548Z,17.70
2023-05-05T07:58:41.073Z,17.86
2023-05-05T08:01:10.815Z,18.52
2023-05-05T08:03:37.794Z,18.14
2023-05-05T08:06:11.383Z,18.24
2023-05-05T08:08:38.163Z,18.42
2023-05-05T08:11:06.454Z,18.85
2023-05-05T08:13:33.374Z,18.87
2023-05-05T08:16:00.090Z,18.91
2023-05-05T08:18:27.008Z,19.05
2023-05-05T08:20:54.672Z,19.89
2023-05-05T08:23:21.627Z,19.59
2023-05-05T08:25:48.591Z,19.10
2023-05-05T08:28:15.049Z,19.13
2023-05-05T08:30:42.733Z,19.44
2023-05-05T08:33:09.366Z,20.05
2023-05-05T08:35:35.927Z,20.13
2023-05-05T08:38:02.454Z,20.46
2023-05-05T08:40:33.061Z,20.81
2023-05-05T08:43:00.024Z,20.73
2023-05-05T08:45:28.944Z,20.62
2023-05-05T08:48:02.216Z,20.92
2023-05-05T08:50:29.802Z,21.16
2023-05-05T08:53:15.390Z,21.29
2023-05-05T08:55:50.483Z,21.11
2023-05-05T08:58:18.396Z,21.47
2023-05-05T09:00:46.197Z,22.07
2023-05-05T09:03:13.262Z,21.66
2023-05-05T09:05:42.012Z,21.60
2023-05-05T09:08:10.494Z,21.98
2023-05-05T09:10:41.602Z,22.21
2023-05-05T09:13:08.274Z,21.97
2023-05-05T09:15:34.922Z,22.10
2023-05-05T09:18:02.053Z,22.12
2023-05-05T09:20:34.501Z,22.60
2023-05-05T09:23:11.188Z,22.52
2023-05-05T09:25:38.502Z,22.91
2023-05-05T09:28:13.264Z,23.07
2023-05-05T09:30:41.402Z,22.97
2023-05-05T09:33:08.227Z,22.96
2023-05-05T09:35:51.037Z,23.04
2023-05-05T09:38:18.565Z,23.45
2023-05-05T09:40:50.815Z,23.89
2023-05-05T09:43:18.664Z,23.49
2023-05-05T09:45:46.113Z,23.42
2023-05-05T09:48:26.859Z,23.32
2023-05-05T09:50:54.412Z,23.17
2023-05-05T09:53:21.681Z,23.57
2023-05-05T09:56:01.007Z,24.00
2023-05-05T09:58:30.667Z,23.88
2023-05-05T10:00:58.983Z,24.44
2023-05-05T10:03:26.281Z,24.09
2023-05-05T10:05:55.754Z,23.27
2023-05-05T10:08:27.610Z,23.98
2023-05-05T10:11:00.550Z,23.92
2023-05-05T10:13:27.870Z,24.06
2023-05-05T10:15:55.945Z,24.48
2023-05-05T10:18:27.504Z,23.85
2023-05-05T10:21:04.369Z,23.24
2023-05-05T10:23:33.915Z,23.71
2023-05-05T10:26:06.310Z,23.26
2023-05-05T10:28:34.792Z,23.54
2023-05-05T10:31:05.795Z,22.91
2023-05-05T10:33:47.469Z,23.25
2023-05-05T10:36:15.058Z,23.69
2023-05-05T10:38:43.029Z,24.18
2023-05-05T10:41:11.589Z,24.24
2023-05-05T10:43:38.524Z,24.47
2023-05-05T10:46:06.300Z,25.03
2023-05-05T10:48:39.652Z,25.61
2023-05-05T10:51:27.459Z,25.05
2023-05-05T10:54:26.399Z,23.44
2023-05-05T10:56:53.566Z,23.30
2023-05-05T10:59:38.736Z,23.50
2023-05-05T11:02:30.485Z,24.14
2023-05-05T11:05:17.546Z,23.87
2023-05-05T11:07:46.391Z,23.97
2023-05-05T11:10:15.722Z,24.05
2023-05-05T11:13:02.960Z,24.74
2023-05-05T11:15:29.980Z,24.07
2023-05-05T11:17:58.460Z,23.95
2023-05-05T11:20:39.503Z,24.52
2023-05-05T11:23:06.293Z,24.53
2023-05-05T11:25:42.347Z,25.20
2023-05-05T11:28:16.891Z,24.94
2023-05-05T11:30:55.829Z,25.34
2023-05-05T11:33:39.220Z,25.02
2023-05-05T11:36:11.732Z,24.48
2023-05-05T11:39:11.431Z,23.02
2023-05-05T11:42:16.209Z,21.83
2023-05-05T11:44:43.116Z,21.19
2023-05-05T11:47:09.648Z,21.45
2023-05-05T11:49:37.306Z,21.16
2023-05-05T11:52:05.255Z,21.08
2023-05-05T11:54:32.867Z,21.35
2023-05-05T11:57:08.335Z,21.46
2023-05-05T11:59:38.976Z,21.65
2023-05-05T12:02:05.911Z,21.18
2023-05-05T12:04:32.727Z,21.98
2023-05-05T12:06:59.814Z,21.40
2023-05-05T12:09:27.311Z,21.44
2023-05-05T12:11:58.548Z,21.66
2023-05-05T12:14:25.879Z,22.27
2023-05-05T12:16:57.029Z,21.93
2023-05-05T12:19:24.251Z,22.13
2023-05-05T12:21:51.331Z,22.73
2023-05-05T12:24:17.973Z,22.44
2023-05-05T12:26:44.516Z,23.15
2023-05-05T12:29:11.145Z,23.69
2023-05-05T12:31:39.159Z,22.91
2023-05-05T12:34:07.943Z,23.62
2023-05-05T12:36:35.642Z,23.08
2023-05-05T12:39:05.472Z,22.85
2023-05-05T12:41:33.194Z,22.95
2023-05-05T12:44:01.776Z,23.62
2023-05-05T12:46:32.198Z,23.78
2023-05-05T12:49:05.188Z,24.42
2023-05-05T12:51:33.127Z,23.62
2023-05-05T12:54:12.867Z,24.80
2023-05-05T12:56:46.765Z,24.55
2023-05-05T12:59:22.032Z,23.80
2023-05-05T13:01:53.167Z,22.51
2023-05-05T13:04:21.485Z,23.21
2023-05-05T13:06:49.358Z,22.72
2023-05-05T13:09:24.127Z,23.28
2023-05-05T13:11:50.704Z,23.50
2023-05-05T13:14:17.243Z,22.78
2023-05-05T13:16:44.058Z,23.14
2023-05-05T13:19:10.662Z,22.53
2023-05-05T13:21:37.232Z,22.61
2023-05-05T13:26:33.669Z,22.97
2023-05-05T13:29:00.218Z,22.24
2023-05-05T13:31:26.837Z,22.45
2023-05-05T13:33:53.453Z,22.09
2023-05-05T13:36:19.862Z,22.48
2023-05-05T13:38:46.458Z,22.28
2023-05-05T13:41:13.191Z,22.23
2023-05-05T13:43:39.687Z,22.01
2023-05-05T13:46:19.128Z,22.25
2023-05-05T13:48:46.846Z,22.17
2023-05-05T13:51:13.387Z,22.73
2023-05-05T13:53:43.752Z,22.60
2023-05-05T13:56:10.819Z,21.89
2023-05-05T13:58:37.990Z,22.31
2023-05-05T14:01:04.696Z,22.09
2023-05-05T14:03:31.627Z,22.54
2023-05-05T14:05:58.159Z,22.43
2023-05-05T14:08:24.811Z,22.54
2023-05-05T14:10:52.265Z,22.08
2023-05-05T14:13:19.190Z,22.16
2023-05-05T14:15:46.540Z,22.67
2023-05-05T14:18:13.064Z,21.39
2023-05-05T14:20:39.525Z,21.91
2023-05-05T14:23:06.080Z,21.75
2023-05-05T14:25:32.747Z,21.46
2023-05-05T14:27:59.400Z,21.80
2023-05-05T14:30:25.970Z,21.56
2023-05-05T14:32:52.859Z,20.97
2023-05-05T14:35:19.354Z,21.18
2023-05-05T14:37:45.822Z,21.35
2023-05-05T14:40:12.419Z,20.98
2023-05-05T14:42:38.970Z,22.01
2023-05-05T14:45:06.817Z,21.74
2023-05-05T14:47:34.706Z,21.68
2023-05-05T14:50:02.347Z,21.51
2023-05-05T14:52:28.845Z,21.11
2023-05-05T14:54:55.360Z,21.23
2023-05-05T14:57:22.057Z,21.10
2023-05-05T14:59:51.906Z,21.41
2023-05-05T15:02:19.477Z,20.79
2023-05-05T15:04:47.575Z,21.25
2023-05-05T15:07:15.104Z,21.18
2023-05-05T15:09:41.722Z,21.67
2023-05-05T15:12:08.409Z,21.44
2023-05-05T15:14:36.633Z,20.98
2023-05-05T15:17:03.109Z,20.99
2023-05-05T15:19:29.750Z,21.42
2023-05-05T15:21:56.284Z,21.27
2023-05-05T15:24:22.856Z,21.28
2023-05-05T15:26:49.293Z,20.60
2023-05-05T15:29:15.823Z,20.30
2023-05-05T15:31:42.290Z,20.62
2023-05-05T15:34:08.877Z,20.86
2023-05-05T15:36:35.384Z,21.06
2023-05-05T15:39:02.425Z,21.53
2023-05-05T15:41:29.460Z,21.14
2023-05-05T15:43:56.059Z,21.11
2023-05-05T15:46:22.670Z,21.05
2023-05-05T15:48:49.243Z,20.92
2023-05-05T15:51:16.235Z,20.52
2023-05-05T15:53:42.721Z,21.02
2023-05-05T15:56:11.604Z,21.07
2023-05-05T15:58:38.124Z,20.30
2023-05-05T16:01:04.861Z,20.98
2023-05-05T16:03:31.560Z,21.05
2023-05-05T16:05:58.267Z,20.81
2023-05-05T16:08:24.774Z,20.84
2023-05-05T16:10:51.370Z,20.65
2023-05-05T16:13:18.403Z,20.65
2023-05-05T16:15:44.971Z,20.68
2023-05-05T16:18:11.356Z,20.85
2023-05-05T16:20:37.862Z,21.04
2023-05-05T16:23:04.659Z,20.87
2023-05-05T16:25:31.165Z,20.70
2023-05-05T16:27:57.680Z,21.07
2023-05-05T16:30:24.188Z,20.81
2023-05-05T16:32:51.832Z,21.06
2023-05-05T16:35:18.319Z,20.66
2023-05-05T16:37:44.932Z,20.36
2023-05-05T16:40:12.244Z,20.44
2023-05-05T16:42:38.734Z,20.28
2023-05-05T16:45:06.760Z,20.46
2023-05-05T16:47:33.541Z,20.24
2023-05-05T16:50:00.185Z,20.01
2023-05-05T16:52:28.143Z,19.97
2023-05-05T16:54:55.654Z,20.18
2023-05-05T16:57:22.980Z,20.09
2023-05-05T16:59:50.288Z,19.62
2023-05-05T17:02:17.115Z,19.83
2023-05-05T17:04:43.737Z,19.65
2023-05-05T17:07:10.407Z,19.88
2023-05-05T17:09:36.986Z,19.63
2023-05-05T17:12:04.359Z,19.46
2023-05-05T17:14:31.153Z,19.61
2023-05-05T17:16:58.025Z,19.56
2023-05-05T17:19:24.673Z,19.70
2023-05-05T17:21:51.195Z,19.66
2023-05-05T17:24:17.652Z,19.59
2023-05-05T17:26:44.230Z,19.57
2023-05-05T17:29:12.956Z,19.49
2023-05-05T17:31:39.770Z,19.41
2023-05-05T17:34:06.330Z,19.33
2023-05-05T17:36:33.826Z,19.29
2023-05-05T17:39:00.393Z,19.25
2023-05-05T17:41:27.006Z,19.11
2023-05-05T17:43:53.543Z,18.95
2023-05-05T17:46:20.071Z,18.91
2023-05-05T17:48:47.008Z,18.80
2023-05-05T17:51:13.533Z,18.77
2023-05-05T17:53:39.967Z,18.69
2023-05-05T17:56:08.698Z,18.64
2023-05-05T17:58:35.706Z,18.68
2023-05-05T18:01:02.315Z,18.74
2023-05-05T18:03:29.217Z,18.68
2023-05-05T18:05:56.049Z,18.60
2023-05-05T18:08:22.657Z,18.49
2023-05-05T18:10:49.051Z,18.47
2023-05-05T18:13:15.717Z,18.74
2023-05-05T18:15:42.407Z,18.55
2023-05-05T18:18:09.140Z,18.77
2023-05-05T18:20:35.727Z,18.30
2023-05-05T18:23:02.183Z,18.20
2023-05-05T18:25:29.230Z,18.59
2023-05-05T18:27:55.702Z,18.39
2023-05-05T18:30:22.186Z,18.27
2023-05-05T18:32:48.854Z,18.30
2023-05-05T18:35:15.668Z,18.23
2023-05-05T18:37:42.289Z,18.12
2023-05-05T18:40:10.020Z,18.15
2023-05-05T18:42:36.584Z,18.02
2023-05-05T18:45:03.119Z,18.11
2023-05-05T18:47:29.734Z,18.03
2023-05-05T18:49:56.344Z,17.94
2023-05-05T18:52:22.992Z,17.90
2023-05-05T18:54:49.509Z,17.86
2023-05-05T18:57:16.277Z,17.82
2023-05-05T18:59:42.780Z,17.78
2023-05-05T19:02:09.213Z,17.76
2023-05-05T19:04:37.985Z,17.53
2023-05-05T19:07:04.812Z,17.47
2023-05-05T19:09:31.453Z,17.43
2023-05-05T19:11:58.037Z,17.17
2023-05-05T19:14:24.802Z,17.10
2023-05-05T19:16:52.843Z,16.91
2023-05-05T19:19:19.424Z,16.84
2023-05-05T19:21:45.943Z,16.67
2023-05-05T19:24:12.533Z,16.64
2023-05-05T19:26:39.265Z,16.55
2023-05-05T19:29:06.485Z,16.39
2023-05-05T19:31:33.247Z,15.96
2023-05-05T19:34:02.308Z,16.08
2023-05-05T19:36:31.620Z,15.87
2023-05-05T19:39:02.426Z,15.66
2023-05-05T19:41:30.749Z,15.65
2023-05-05T19:43:57.850Z,15.37
2023-05-05T19:46:27.392Z,15.30
2023-05-05T19:48:54.049Z,15.36
2023-05-05T19:51:20.566Z,15.31
2023-05-05T19:53:47.133Z,15.37
2023-05-05T19:56:13.959Z,15.25
2023-05-05T19:58:56.595Z,15.05
2023-05-05T20:01:23.715Z,14.86
2023-05-05T20:03:51.042Z,14.79
2023-05-05T20:06:17.715Z,14.65
2023-05-05T20:08:44.163Z,14.80
2023-05-05T20:11:10.752Z,14.62
2023-05-05T20:13:38.268Z,14.81
2023-05-05T20:16:06.172Z,14.68
2023-05-05T20:18:33.484Z,14.78
2023-05-05T20:21:00.079Z,14.72
2023-05-05T20:23:26.841Z,14.69
2023-05-05T20:25:54.678Z,14.63
2023-05-05T20:28:21.561Z,14.56
2023-05-05T20:30:48.164Z,14.44
2023-05-05T20:33:14.752Z,14.56
2023-05-05T20:35:41.272Z,14.55
2023-05-05T20:38:09.646Z,14.55
2023-05-05T20:40:36.528Z,14.49
2023-05-05T20:43:03.294Z,14.49
2023-05-05T20:45:31.736Z,14.45
2023-05-05T20:47:58.696Z,14.44
2023-05-05T20:50:25.778Z,14.46
2023-05-05T20:52:52.461Z,14.39
2023-05-05T20:55:19.069Z,14.36
2023-05-05T20:57:46.056Z,14.40
2023-05-05T21:00:13.000Z,14.33
2023-05-05T21:02:40.201Z,14.26
2023-05-05T21:05:07.257Z,14.31
2023-05-05T21:07:34.284Z,14.22
2023-05-05T21:10:04.645Z,14.22
2023-05-05T21:12:31.271Z,14.08
2023-05-05T21:14:58.925Z,14.22
2023-05-05T21:17:25.897Z,14.25
2023-05-05T21:19:52.764Z,14.18
2023-05-05T21:22:20.142Z,14.26
2023-05-05T21:24:46.815Z,14.16
2023-05-05T21:27:13.724Z,14.12
2023-05-05T21:29:40.942Z,14.22
2023-05-05T21:32:09.020Z,14.20
2023-05-05T21:34:36.447Z,14.17
2023-05-05T21:37:03.204Z,14.13
2023-05-05T21:39:33.296Z,14.10
2023-05-05T21:42:00.945Z,14.14
2023-05-05T21:44:28.278Z,14.04
2023-05-05T21:46:55.622Z,14.05
2023-05-05T21:49:22.487Z,13.96
2023-05-05T21:51:49.860Z,14.04
2023-05-05T21:54:16.419Z,13.98
2023-05-05T21:56:43.024Z,13.89
2023-05-05T21:59:09.614Z,13.90
2023-05-05T22:18:02.805Z,13.10
2023-05-05T22:20:29.953Z,13.11
2023-05-05T22:22:58.003Z,13.24
2023-05-05T22:25:24.545Z,13.34
2023-05-05T22:27:51.212Z,13.38
2023-05-05T22:30:17.783Z,13.47
2023-05-05T22:32:44.295Z,13.48
2023-05-05T22:35:11.152Z,13.57
2023-05-05T22:37:38.186Z,13.49
2023-05-05T22:40:05.302Z,13.54
2023-05-05T22:42:31.868Z,13.58
2023-05-05T22:44:58.322Z,13.67
2023-05-05T22:47:24.844Z,13.65
2023-05-05T22:49:51.373Z,13.67
2023-05-05T22:52:18.010Z,13.58
2023-05-05T22:54:44.443Z,13.62
2023-05-05T22:57:11.034Z,13.63
2023-05-05T22:59:37.825Z,13.71
2023-05-05T23:02:05.324Z,13.68
2023-05-05T23:04:31.892Z,13.76
2023-05-05T23:06:58.328Z,13.82
2023-05-05T23:09:24.897Z,13.75
2023-05-05T23:11:51.302Z,13.89
2023-05-05T23:14:19.364Z,13.80
2023-05-05T23:16:46.477Z,13.81
2023-05-05T23:19:13.784Z,13.82
2023-05-05T23:21:52.046Z,13.78
2023-05-05T23:24:20.061Z,13.74
2023-05-05T23:26:46.524Z,13.90
2023-05-05T23:29:13.037Z,13.88
2023-05-05T23:31:39.467Z,13.86
2023-05-05T23:34:06.349Z,13.79
2023-05-05T23:36:32.869Z,13.79
2023-05-05T23:38:59.349Z,13.80
2023-05-05T23:41:26.033Z,13.77
2023-05-05T23:43:52.556Z,13.79
2023-05-05T23:46:19.112Z,13.76
2023-05-05T23:48:45.720Z,13.68
2023-05-05T23:51:12.125Z,13.66
2023-05-05T23:53:38.635Z,13.60
2023-05-05T23:56:05.611Z,13.66
2023-05-05T23:58:32.092Z,13.64
